Terminal Aerodrome Forecast
Issued by NWS

Home | Current Version | Previous Version | Text Only | Print | Product List | Glossary On
Versions: 1 2 3 4 5 6 7 8 9 10 11 12 13
000
FTUS43 KJKL 010211 AAA
TAFSME
TAF AMD
KSME 010211Z 0102/0124 17006KT P6SM -SHRA VCTS BKN050CB
     FM010400 17012KT P6SM VCTS BKN050CB WS020/19045KT
     FM010700 19011G20KT P6SM -SHRA VCTS BKN050CB OVC090
      WS020/19045KT
      TEMPO 0107/0110 4SM TSRA OVC040CB
     FM011000 22010G20KT 6SM SHRA VCTS OVC045CB WS020/19045KT
     FM011200 22010KT P6SM VCSH OVC040
     FM011700 22020G34KT P6SM SCT050=

USA.gov is the U.S. government's official web portal to all federal, state and local government web resources and services.